createdAt,value
2023-01-30T10:51:48.299Z,3.83
2023-01-30T10:54:29.766Z,3.30
2023-01-30T10:57:32.985Z,4.37
2023-01-30T11:00:05.977Z,2.87
2023-01-30T11:03:51.351Z,3.53
2023-01-30T11:11:30.815Z,4.40
2023-01-30T11:14:20.682Z,3.10
2023-01-30T11:16:52.061Z,3.23
2023-01-30T11:19:23.540Z,4.33
2023-01-30T11:25:06.338Z,3.30
2023-01-30T11:28:06.681Z,3.37
2023-01-30T11:30:39.447Z,3.70
2023-01-30T11:33:14.836Z,2.60
2023-01-30T11:35:55.219Z,3.43
2023-01-30T11:38:28.025Z,2.50
2023-01-30T11:41:18.050Z,2.83
2023-01-30T11:43:49.217Z,2.90
2023-01-30T11:46:21.866Z,4.70
2023-01-30T11:49:03.340Z,2.90
2023-01-30T11:51:47.496Z,2.47
2023-01-30T11:54:20.490Z,3.93
2023-01-30T11:56:54.511Z,2.40
2023-01-30T11:59:29.343Z,1.70
2023-01-30T12:02:23.630Z,2.43
2023-01-30T12:04:57.001Z,1.90
2023-01-30T12:07:30.882Z,1.37
2023-01-30T12:10:03.419Z,2.50
2023-01-30T12:12:39.866Z,1.47
2023-01-30T12:15:27.140Z,2.33
2023-01-30T12:18:07.830Z,2.50
2023-01-30T12:20:51.452Z,2.43
2023-01-30T12:23:29.138Z,3.60
2023-01-30T12:26:05.526Z,6.97
2023-01-30T12:28:45.885Z,3.97
2023-01-30T12:31:54.532Z,3.40
2023-01-30T12:34:27.669Z,2.83
2023-01-30T12:37:07.099Z,2.67
2023-01-30T12:39:50.217Z,2.43
2023-01-30T12:42:37.235Z,3.13
2023-01-30T12:45:23.054Z,3.10
2023-01-30T12:48:20.056Z,3.20
2023-01-30T12:51:00.529Z,2.53
2023-01-30T12:53:40.372Z,3.23
2023-01-30T12:56:37.133Z,2.20
2023-01-30T12:59:18.464Z,2.43
2023-01-30T13:02:01.432Z,3.47
2023-01-30T13:04:56.165Z,3.10
2023-01-30T13:07:45.140Z,4.47
2023-01-30T13:10:24.143Z,3.90
2023-01-30T13:13:05.217Z,2.83
2023-01-30T13:15:40.207Z,2.50
2023-01-30T13:18:15.634Z,2.83
2023-01-30T13:21:08.978Z,2.80
2023-01-30T13:23:50.857Z,4.80
2023-01-30T13:26:23.069Z,5.20
2023-01-30T13:28:58.944Z,3.80
2023-01-30T13:31:32.097Z,6.97
2023-01-30T13:34:17.332Z,3.87
2023-01-30T13:36:50.980Z,4.07
2023-01-30T13:39:35.714Z,5.13
2023-01-30T13:42:09.653Z,4.40
2023-01-30T13:44:45.796Z,4.37
2023-01-30T13:47:31.430Z,3.30
2023-01-30T13:50:21.852Z,3.73
2023-01-30T13:53:00.781Z,4.53
2023-01-30T13:55:39.789Z,5.00
2023-01-30T13:58:18.761Z,3.57
2023-01-30T14:01:02.355Z,7.20
2023-01-30T14:03:33.934Z,5.63
2023-01-30T14:06:14.764Z,4.60
2023-01-30T14:08:55.697Z,6.13
2023-01-30T14:11:37.105Z,7.93
2023-01-30T14:14:22.833Z,3.03
2023-01-30T14:16:56.997Z,8.93
2023-01-30T14:19:42.527Z,3.30
2023-01-30T14:22:24.790Z,3.80
2023-01-30T14:25:29.162Z,4.77
2023-01-30T14:29:03.198Z,4.33
2023-01-30T14:32:03.332Z,5.80
2023-01-30T14:35:05.878Z,3.80
2023-01-30T14:38:12.738Z,4.50
2023-01-30T14:40:43.161Z,4.00
2023-01-30T14:43:50.265Z,5.13
2023-01-30T14:46:54.482Z,3.37
2023-01-30T14:49:33.309Z,2.83
2023-01-30T14:52:06.133Z,3.53
2023-01-30T14:54:42.117Z,4.97
2023-01-30T14:57:34.819Z,3.47
2023-01-30T15:00:17.195Z,4.90
2023-01-30T15:02:52.072Z,5.10
2023-01-30T15:05:30.779Z,6.27
2023-01-30T15:08:06.724Z,5.60
2023-01-30T15:10:51.274Z,7.10
2023-01-30T15:13:43.535Z,6.23
2023-01-30T15:16:29.073Z,5.90
2023-01-30T15:19:17.022Z,6.27
2023-01-30T15:22:05.767Z,10.10
2023-01-30T15:25:05.809Z,5.30
2023-01-30T15:27:53.554Z,4.60
2023-01-30T15:30:41.235Z,7.47
2023-01-30T15:33:29.216Z,4.07
2023-01-30T15:36:01.070Z,10.33
2023-01-30T15:38:33.934Z,7.17
2023-01-30T15:41:04.695Z,6.90
2023-01-30T15:43:54.857Z,6.93
2023-01-30T15:46:33.983Z,7.77
2023-01-30T15:49:27.260Z,6.80
2023-01-30T15:52:08.389Z,7.07
2023-01-30T15:54:40.079Z,6.63
2023-01-30T15:57:13.014Z,8.23
2023-01-30T15:59:44.205Z,6.30
2023-01-30T16:02:17.740Z,6.97
2023-01-30T16:04:50.832Z,5.77
2023-01-30T16:07:28.056Z,11.03
2023-01-30T16:10:07.380Z,8.63
2023-01-30T16:12:42.206Z,8.43
2023-01-30T16:15:29.516Z,7.27
2023-01-30T16:18:08.841Z,10.10
2023-01-30T16:20:59.212Z,10.97
2023-01-30T16:23:33.204Z,17.40
2023-01-30T16:26:08.030Z,10.87
2023-01-30T16:28:39.306Z,7.80
2023-01-30T16:31:10.161Z,11.30
2023-01-30T16:33:45.975Z,9.97
2023-01-30T16:36:35.516Z,9.43
2023-01-30T16:39:04.186Z,6.57
2023-01-30T16:41:41.431Z,7.90
2023-01-30T16:44:18.245Z,9.83
2023-01-30T16:46:53.920Z,6.53
2023-01-30T16:49:27.676Z,12.03
2023-01-30T16:52:05.278Z,12.97
2023-01-30T16:54:37.355Z,9.13
2023-01-30T16:57:08.946Z,7.47
2023-01-30T16:59:39.914Z,12.80
2023-01-30T17:02:24.844Z,14.87
2023-01-30T17:04:55.472Z,11.10
2023-01-30T17:07:49.838Z,8.93
2023-01-30T17:11:01.365Z,9.13
2023-01-30T17:13:43.488Z,8.97
2023-01-30T17:16:35.337Z,9.20
2023-01-30T17:19:07.218Z,12.20
2023-01-30T17:21:44.279Z,8.70
2023-01-30T17:24:18.035Z,11.13
2023-01-30T17:26:51.850Z,10.93
2023-01-30T17:29:41.284Z,10.47
2023-01-30T17:32:16.483Z,12.00
2023-01-30T17:34:45.461Z,9.83
2023-01-30T17:37:17.043Z,9.07
2023-01-30T17:39:47.651Z,14.30
2023-01-30T17:42:21.123Z,9.33
2023-01-30T17:44:54.075Z,13.60
2023-01-30T17:47:24.010Z,13.67
2023-01-30T17:49:53.271Z,10.57
2023-01-30T17:52:22.908Z,9.33
2023-01-30T17:54:54.367Z,17.50
2023-01-30T17:57:27.940Z,9.77
2023-01-30T17:59:59.803Z,10.33
2023-01-30T18:02:31.545Z,15.00
2023-01-30T18:05:01.152Z,12.33
2023-01-30T18:07:31.131Z,9.70
2023-01-30T18:10:01.280Z,11.67
2023-01-30T18:12:35.667Z,12.57
2023-01-30T18:15:07.425Z,10.10
2023-01-30T18:17:46.056Z,10.83
2023-01-30T18:20:22.924Z,11.27
2023-01-30T18:22:53.183Z,10.37
2023-01-30T18:25:22.312Z,9.87
2023-01-30T18:27:52.041Z,11.57
2023-01-30T18:30:25.433Z,13.37
2023-01-30T18:32:54.146Z,12.27
2023-01-30T18:35:24.436Z,12.63
2023-01-30T18:37:54.792Z,13.43
2023-01-30T18:40:26.822Z,8.97
2023-01-30T18:43:06.830Z,13.27
2023-01-30T18:45:38.992Z,11.43
2023-01-30T18:48:09.367Z,13.70
2023-01-30T18:50:39.263Z,14.87
2023-01-30T18:53:08.514Z,14.07
2023-01-30T18:55:50.494Z,20.20
2023-01-30T18:58:22.019Z,10.23
2023-01-30T19:00:54.826Z,10.73
2023-01-30T19:03:24.707Z,9.90
2023-01-30T19:05:53.471Z,12.10
2023-01-30T19:08:23.297Z,13.70
2023-01-30T19:10:53.297Z,8.73
2023-01-30T19:13:33.556Z,14.47
2023-01-30T19:16:09.099Z,12.20
2023-01-30T19:18:42.657Z,12.77
2023-01-30T19:21:13.335Z,14.63
2023-01-30T19:23:44.102Z,16.50
2023-01-30T19:26:16.181Z,16.90
2023-01-30T19:28:47.242Z,9.17
2023-01-30T19:31:20.218Z,9.93
2023-01-30T19:33:58.125Z,15.50
2023-01-30T19:36:30.221Z,13.70
2023-01-30T19:38:59.808Z,15.03
2023-01-30T19:41:30.907Z,13.73
2023-01-30T19:44:10.281Z,17.37
2023-01-30T19:46:43.515Z,17.23
2023-01-30T19:49:13.787Z,12.37
2023-01-30T19:51:43.653Z,11.30
2023-01-30T19:54:14.185Z,11.37
2023-01-30T19:56:45.528Z,11.90
2023-01-30T19:59:18.175Z,9.37
2023-01-30T20:01:50.168Z,14.83
2023-01-30T20:04:18.859Z,9.63
2023-01-30T20:06:49.785Z,10.50
2023-01-30T20:09:22.841Z,10.60
2023-01-30T20:11:53.529Z,13.13
2023-01-30T20:14:23.206Z,14.57
2023-01-30T20:16:54.047Z,15.83
2023-01-30T20:19:25.188Z,13.03
2023-01-30T20:21:57.698Z,10.30
2023-01-30T20:24:28.309Z,18.67
2023-01-30T20:26:57.646Z,11.47
2023-01-30T20:29:26.785Z,15.63
2023-01-30T20:32:01.697Z,11.40
2023-01-30T20:34:29.953Z,11.37
2023-01-30T20:37:00.880Z,14.27
2023-01-30T20:39:31.093Z,14.60
2023-01-30T20:42:02.146Z,15.30
2023-01-30T20:44:33.741Z,13.97
2023-01-30T20:47:05.086Z,15.47
2023-01-30T20:49:36.488Z,11.87
2023-01-30T20:52:07.343Z,11.63
2023-01-30T20:54:35.795Z,10.67
2023-01-30T20:57:08.853Z,13.80
2023-01-30T20:59:37.437Z,10.30
2023-01-30T21:02:07.984Z,11.27
2023-01-30T21:04:39.947Z,17.80
2023-01-30T21:07:12.337Z,10.37
2023-01-30T21:12:27.917Z,16.43
2023-01-30T21:14:58.753Z,13.77
2023-01-30T21:17:33.133Z,13.23
2023-01-30T21:20:01.990Z,14.63
2023-01-30T21:22:32.656Z,17.73
2023-01-30T21:25:01.725Z,14.43
2023-01-30T21:27:41.516Z,12.97
2023-01-30T21:30:25.203Z,13.20
2023-01-30T21:32:58.733Z,11.20
2023-01-30T21:35:44.870Z,11.87
2023-01-30T21:38:31.925Z,8.73
2023-01-30T21:41:26.155Z,15.83
2023-01-30T21:43:54.481Z,14.67
2023-01-30T21:46:22.871Z,13.37
2023-01-30T21:48:53.545Z,13.17
2023-01-30T21:51:22.885Z,16.10
2023-01-30T21:53:50.871Z,7.93
2023-01-30T21:56:21.217Z,14.73
2023-01-30T21:58:52.043Z,14.63
2023-01-30T22:01:20.531Z,14.90
2023-01-30T22:03:49.133Z,13.37
2023-01-30T22:06:18.869Z,13.80
2023-01-30T22:08:48.119Z,9.03
2023-01-30T22:11:19.399Z,10.07
2023-01-30T22:16:34.040Z,14.37
2023-01-30T22:19:04.402Z,11.17
2023-01-30T22:21:36.224Z,13.13
2023-01-30T22:24:08.547Z,12.80
2023-01-30T22:26:37.686Z,16.20
2023-01-30T22:29:07.841Z,10.73
2023-01-30T22:31:40.442Z,13.77
2023-01-30T22:34:11.632Z,14.33
2023-01-30T22:36:42.055Z,10.60
2023-01-30T22:39:12.088Z,14.57
2023-01-30T22:41:42.264Z,13.80
2023-01-30T22:44:11.292Z,12.63
2023-01-30T22:46:42.138Z,10.40
2023-01-30T22:49:12.434Z,15.17
2023-01-30T22:51:43.922Z,15.43
2023-01-30T22:54:16.213Z,10.47
2023-01-30T22:56:46.662Z,13.20
2023-01-30T22:59:15.967Z,8.33
2023-01-30T23:02:19.362Z,6.17
2023-01-30T23:04:50.782Z,12.83
2023-01-30T23:07:23.536Z,14.93
2023-01-30T23:09:52.074Z,11.50
2023-01-30T23:12:43.762Z,10.17
2023-01-30T23:15:12.834Z,10.87
2023-01-30T23:17:59.851Z,8.83
2023-01-30T23:20:28.439Z,9.63
2023-01-30T23:22:58.116Z,15.97
2023-01-30T23:25:29.609Z,14.10
2023-01-30T23:28:01.117Z,10.23
2023-01-30T23:30:32.123Z,11.63
2023-01-30T23:33:01.295Z,11.13
2023-01-30T23:35:29.953Z,10.83
2023-01-30T23:38:13.603Z,9.43
2023-01-30T23:40:43.283Z,10.87
2023-01-30T23:43:14.078Z,11.70
2023-01-30T23:45:43.399Z,10.07
2023-01-30T23:48:12.236Z,11.57
2023-01-30T23:50:42.235Z,10.67
2023-01-30T23:53:12.135Z,10.10
2023-01-30T23:55:40.474Z,11.63
2023-01-30T23:58:09.344Z,11.10
